LFOP

Rouen Airport

Rouen/Vallée de Seine, France
TAF LFOP 171100Z 1712/1812 30008KT 9999 BKN020 BECMG 1801/1804 0800 FG OVC003 BECMG 1806/1808 2000 BR OVC008 BECMG 1808/1810 9999 NSW BKN018
Issued Valid From Valid To
Aug-17 @ 11:00 UTC
(4 hours ago)
Aug-17 @ 12:00 UTC
(3 hours ago)
Aug-18 @ 12:00 UTC
(in 21 hours)
Aug-17 @ 12:00 to Aug-18 @ 01:00
TAF LFOP 171100Z 1712/1812 30008KT 9999 BKN020
Wind Visibility Clouds
300° at 8 knots 10,000+ meters
  • Broken at 2,000' AGL
Becoming Aug-18 @ 01:00 to Aug-18 @ 06:00
BECMG 1801/1804 0800 FG OVC003
Wind Visibility Clouds Conditions
300° at 8 knots 805 meters
  • Overcast at 300' AGL
  • Fog
Becoming Aug-18 @ 06:00 to Aug-18 @ 08:00
BECMG 1806/1808 2000 BR OVC008
Wind Visibility Clouds Conditions
300° at 8 knots 1,996 meters
  • Overcast at 800' AGL
  • Mist
Becoming Aug-18 @ 08:00 to Aug-18 @ 12:00
BECMG 1808/1810 9999 NSW BKN018
Wind Visibility Clouds Conditions
300° at 8 knots 10,000+ meters
  • Broken at 1,800' AGL
TAF LFOP 171100Z 1712/1812 30008KT 9999 BKN020 BECMG 1801/1804 0800 FG OVC003 BECMG 1806/1808 2000 BR OVC008 BECMG 1808/1810 9999 NSW BKN018
Issued Aug-17 @ 11:00 UTC
(4 hours ago)
Valid From Aug-17 @ 12:00 UTC
(3 hours ago)
Valid To Aug-18 @ 12:00 UTC
(in 21 hours)
Aug-17 @ 12:00 - Aug-18 @ 01:00
Wind Visibility
300° at 8 knots 10,000+ meters
Clouds
  • Broken at 2,000' AGL
Becoming Aug-18 @ 01:00 - Aug-18 @ 06:00
Wind Visibility
300° at 8 knots 805 meters
Clouds
  • Overcast at 300' AGL
Conditions
  • Fog
Becoming Aug-18 @ 06:00 - Aug-18 @ 08:00
Wind Visibility
300° at 8 knots 1,996 meters
Clouds
  • Overcast at 800' AGL
Conditions
  • Mist
Becoming Aug-18 @ 08:00 - Aug-18 @ 12:00
Wind Visibility
300° at 8 knots 10,000+ meters
Clouds
  • Broken at 1,800' AGL
Conditions